Time;durP1;ratioP1;P1;durP2;ratioP2;P2;SDS_P1;SDS_P2;PMS_P1;PMS_P2;Temp;Humidity;BMP_temperature;BMP_pressure;BME280_temperature;BME280_humidity;BME280_pressure;Samples;Min_cycle;Max_cycle;Signal;HPM_P1;HPM_P2
2021/05/19 00:00:09;;;;;;;8.38;3.58;;;;;;;16.91;70.12;98865.94;1658795;85;21695;-67
2021/05/19 00:02:36;;;;;;;6.42;2.80;;;;;;;16.92;70.04;98862.80;1701960;81;21181;-66
2021/05/19 00:05:05;;;;;;;6.85;3.15;;;;;;;16.98;69.88;98855.33;1701242;82;21533;-65
2021/05/19 00:07:31;;;;;;;5.08;3.15;;;;;;;17.02;69.95;98857.91;1696876;82;21391;-69
2021/05/19 00:09:58;;;;;;;7.45;3.87;;;;;;;17.04;69.91;98856.66;1676307;83;21133;-68
2021/05/19 00:12:24;;;;;;;6.78;4.33;;;;;;;17.00;69.97;98850.66;1701782;82;22537;-67
2021/05/19 00:14:52;;;;;;;6.00;3.62;;;;;;;16.95;70.10;98855.75;1693519;82;21136;-71
2021/05/19 00:17:18;;;;;;;7.00;3.65;;;;;;;16.89;70.19;98857.36;1678294;84;21066;-67
2021/05/19 00:19:46;;;;;;;6.92;3.40;;;;;;;16.89;70.25;98854.22;1692225;82;21092;-71
2021/05/19 00:22:12;;;;;;;7.50;3.37;;;;;;;16.95;70.10;98854.43;1691841;84;21145;-67
2021/05/19 00:24:38;;;;;;;6.15;4.15;;;;;;;16.99;69.90;98852.47;1693428;83;21069;-67
2021/05/19 00:27:05;;;;;;;5.85;3.80;;;;;;;17.00;69.88;98850.66;1700637;84;21650;-68
2021/05/19 00:29:34;;;;;;;6.47;4.08;;;;;;;16.99;69.93;98852.47;1694649;82;21137;-65
2021/05/19 00:32:00;;;;;;;7.08;3.90;;;;;;;17.00;69.97;98849.33;1692554;82;21124;-66
2021/05/19 00:34:27;;;;;;;6.67;4.30;;;;;;;16.97;70.00;98847.06;1674454;84;21094;-66
2021/05/19 00:36:55;;;;;;;5.42;3.47;;;;;;;16.90;70.06;98841.22;1696728;82;21077;-67
2021/05/19 00:39:22;;;;;;;6.53;3.75;;;;;;;16.82;70.29;98844.55;1664044;85;21127;-69
2021/05/19 00:41:48;;;;;;;5.45;3.52;;;;;;;16.80;70.21;98847.41;1660683;84;21126;-66
2021/05/19 00:44:18;;;;;;;6.80;3.75;;;;;;;16.78;70.30;98851.27;1657056;85;21171;-66
2021/05/19 00:46:45;;;;;;;6.58;3.95;;;;;;;16.79;70.33;98839.63;1625405;86;21081;-66
2021/05/19 00:49:12;;;;;;;9.03;4.92;;;;;;;16.81;70.30;98845.06;1651148;84;22525;-67
2021/05/19 00:51:40;;;;;;;7.85;4.97;;;;;;;16.80;70.26;98849.25;1662932;84;21108;-66
2021/05/19 00:54:07;;;;;;;6.80;4.15;;;;;;;16.76;70.25;98848.84;1629416;84;21123;-67
2021/05/19 00:56:33;;;;;;;6.45;4.10;;;;;;;16.69;70.36;98843.51;1660044;84;21144;-67
2021/05/19 00:59:01;;;;;;;7.53;4.37;;;;;;;16.65;70.46;98845.42;1661679;84;21156;-72
2021/05/19 01:01:35;;;;;;;7.10;4.22;;;;;;;16.64;70.50;98836.66;1653222;85;21956;-69
2021/05/19 01:04:03;;;;;;;6.83;4.10;;;;;;;16.70;70.47;98840.33;1654193;84;21964;-69
2021/05/19 01:11:59;;;;;;;7.80;4.20;;;;;;;16.72;70.28;98844.93;1673610;85;21106;-66
2021/05/19 01:14:30;;;;;;;7.67;4.80;;;;;;;16.68;70.35;98843.19;1639993;85;21775;-72
2021/05/19 01:16:57;;;;;;;7.33;4.40;;;;;;;16.63;70.57;98846.95;1668222;84;21658;-66
2021/05/19 01:19:26;;;;;;;7.17;4.35;;;;;;;16.56;70.77;98846.12;1627080;86;21124;-66
2021/05/19 01:21:54;;;;;;;7.97;4.37;;;;;;;16.53;70.87;98847.84;1643831;86;21120;-68
2021/05/19 01:24:21;;;;;;;7.35;4.25;;;;;;;16.56;70.87;98852.76;1630812;86;21365;-67
2021/05/19 01:26:50;;;;;;;6.40;4.03;;;;;;;16.61;70.76;98858.78;1661080;84;21148;-67
2021/05/19 01:29:16;;;;;;;9.10;4.33;;;;;;;16.62;70.71;98850.61;1661723;84;21619;-66
2021/05/19 01:31:47;;;;;;;7.15;4.50;;;;;;;16.65;70.79;98849.41;1659642;84;21191;-67
2021/05/19 01:34:14;;;;;;;7.40;5.28;;;;;;;16.66;70.89;98856.34;1659772;84;21103;-66
2021/05/19 01:36:42;;;;;;;11.12;5.33;;;;;;;16.66;70.89;98855.85;1662324;85;21124;-68
2021/05/19 01:39:08;;;;;;;6.97;4.58;;;;;;;16.69;70.83;98863.91;1659874;84;21668;-66
2021/05/19 01:41:35;;;;;;;8.35;5.30;;;;;;;16.72;70.80;98863.52;1663842;84;21164;-67
2021/05/19 01:44:11;;;;;;;7.00;4.58;;;;;;;16.76;70.75;98862.12;1634009;84;21179;-69
2021/05/19 01:46:46;;;;;;;7.37;4.72;;;;;;;16.77;70.69;98864.25;1650266;85;21112;-66
2021/05/19 01:49:13;;;;;;;7.20;5.45;;;;;;;16.78;70.80;98860.08;1674047;84;21092;-66
2021/05/19 01:51:40;;;;;;;8.28;6.00;;;;;;;16.80;70.81;98863.86;1638566;85;21654;-65
2021/05/19 01:54:09;;;;;;;8.68;5.50;;;;;;;16.77;70.86;98859.75;1647745;85;21212;-65
2021/05/19 01:56:38;;;;;;;9.53;6.97;;;;;;;16.73;70.95;98855.88;1642149;86;21656;-69
2021/05/19 01:59:06;;;;;;;9.68;6.50;;;;;;;16.66;71.07;98855.02;1644249;86;21145;-67
2021/05/19 02:01:34;;;;;;;11.68;6.17;;;;;;;16.59;71.17;98852.85;1642325;85;21093;-67
2021/05/19 02:04:10;;;;;;;12.50;6.37;;;;;;;16.54;71.23;98849.46;1641930;85;21093;-71
2021/05/19 02:06:56;;;;;;;10.10;6.75;;;;;;;16.51;71.37;98847.23;1648088;85;21149;-66
2021/05/19 02:09:26;;;;;;;11.40;7.53;;;;;;;16.48;71.55;98856.91;1641802;85;21977;-69
2021/05/19 02:11:54;;;;;;;15.80;7.37;;;;;;;16.38;71.78;98854.62;1619838;86;21168;-66
2021/05/19 02:14:21;;;;;;;8.08;6.10;;;;;;;16.32;72.00;98860.71;1618513;86;21144;-67
2021/05/19 02:16:49;;;;;;;8.83;6.83;;;;;;;16.32;72.16;98871.33;1646022;85;21091;-66
2021/05/19 02:19:16;;;;;;;10.20;6.60;;;;;;;16.39;72.07;98870.88;1672028;84;21104;-66
2021/05/19 02:44:34;;;;;;;15.45;10.20;;;;;;;17.72;68.70;98890.75;1818127;77;22514;-60
2021/05/19 02:47:01;;;;;;;12.73;9.58;;;;;;;17.55;69.02;98889.86;1770223;78;21122;-62
2021/05/19 02:49:28;;;;;;;11.45;8.85;;;;;;;17.52;69.04;98892.11;1753929;78;21041;-60
2021/05/19 02:51:55;;;;;;;13.90;10.50;;;;;;;17.54;68.95;98892.20;1771977;79;21036;-61
2021/05/19 02:54:21;;;;;;;14.13;10.75;;;;;;;17.53;68.96;98895.86;1776818;79;21099;-61
2021/05/19 02:56:49;;;;;;;14.40;11.05;;;;;;;17.51;69.05;98894.45;1763343;79;21112;-61
2021/05/19 02:59:16;;;;;;;13.80;9.65;;;;;;;17.46;69.31;98891.88;1768823;79;21057;-62
2021/05/19 03:01:42;;;;;;;14.18;10.10;;;;;;;17.41;69.31;98893.00;1764672;79;21276;-61
2021/05/19 03:04:09;;;;;;;11.90;9.05;;;;;;;17.36;69.47;98888.00;1772335;79;21074;-61
2021/05/19 03:06:36;;;;;;;13.30;8.98;;;;;;;17.33;69.61;98886.58;1759873;79;21054;-61
2021/05/19 03:09:04;;;;;;;12.82;9.35;;;;;;;17.36;69.59;98883.48;1766141;78;21886;-62
2021/05/19 03:11:32;;;;;;;15.63;10.75;;;;;;;17.40;69.55;98883.89;1780575;78;21031;-61
2021/05/19 03:13:59;;;;;;;16.70;9.93;;;;;;;17.40;69.73;98880.75;1770782;79;21075;-63
2021/05/19 03:16:29;;;;;;;14.03;9.88;;;;;;;17.40;69.75;98890.54;1781473;79;21081;-65
2021/05/19 03:18:56;;;;;;;15.23;10.30;;;;;;;17.39;69.65;98894.23;1788723;79;21211;-64
2021/05/19 03:21:22;;;;;;;15.53;10.60;;;;;;;17.36;69.67;98895.45;1780038;78;21077;-58
2021/05/19 03:23:49;;;;;;;13.08;8.58;;;;;;;17.38;69.61;98896.58;1749818;79;21083;-62
2021/05/19 03:26:15;;;;;;;12.35;9.35;;;;;;;17.42;69.58;98897.83;1769108;78;21058;-59
2021/05/19 03:28:42;;;;;;;13.68;9.78;;;;;;;17.47;69.46;98903.35;1758876;79;21595;-64
2021/05/19 03:31:09;;;;;;;14.05;10.03;;;;;;;17.50;69.35;98906.09;1749908;79;21562;-65
2021/05/19 03:33:38;;;;;;;14.05;10.98;;;;;;;17.45;69.47;98904.88;1768484;79;21124;-61
2021/05/19 03:36:06;;;;;;;15.93;10.25;;;;;;;17.43;69.62;98906.09;1772922;79;21508;-62
2021/05/19 03:38:34;;;;;;;15.00;10.78;;;;;;;17.41;69.62;98903.63;1756435;79;21078;-63
2021/05/19 03:41:03;;;;;;;15.95;9.70;;;;;;;17.39;69.59;98912.85;1767452;79;21622;-61
2021/05/19 03:43:31;;;;;;;12.20;8.90;;;;;;;17.37;69.76;98910.91;1777725;79;21083;-61
2021/05/19 03:45:58;;;;;;;12.40;9.15;;;;;;;17.42;69.69;98911.13;1779664;79;21114;-61
2021/05/19 03:48:25;;;;;;;14.05;9.40;;;;;;;17.45;69.64;98910.72;1777859;79;20996;-60
2021/05/19 03:50:52;;;;;;;13.75;9.83;;;;;;;17.46;69.63;98912.34;1781340;78;21141;-62
2021/05/19 03:53:18;;;;;;;14.50;10.15;;;;;;;17.46;69.63;98908.35;1752271;80;21120;-61
2021/05/19 03:55:46;;;;;;;12.88;10.00;;;;;;;17.47;69.77;98908.67;1777383;79;21116;-62
2021/05/19 03:58:14;;;;;;;13.58;9.53;;;;;;;17.45;69.89;98908.06;1790753;78;21162;-63
2021/05/19 04:00:40;;;;;;;12.55;9.65;;;;;;;17.45;69.88;98907.54;1778765;78;21218;-63
2021/05/19 04:03:07;;;;;;;12.13;9.05;;;;;;;17.51;69.80;98903.76;1752567;79;21018;-62
2021/05/19 04:05:37;;;;;;;12.55;10.18;;;;;;;17.56;69.61;98908.76;1771048;79;21136;-63
2021/05/19 04:08:05;;;;;;;13.55;10.35;;;;;;;17.58;69.57;98908.55;1746004;79;21127;-63
2021/05/19 04:10:31;;;;;;;15.78;11.00;;;;;;;17.52;69.67;98911.53;1774875;79;21111;-63
2021/05/19 04:13:00;;;;;;;15.18;10.65;;;;;;;17.49;69.85;98911.13;1768451;78;21719;-63
2021/05/19 04:15:28;;;;;;;14.10;10.03;;;;;;;17.48;69.90;98910.28;1765264;79;21152;-63
2021/05/19 04:17:55;;;;;;;14.30;9.28;;;;;;;17.43;69.99;98912.74;1767431;78;21089;-59
2021/05/19 04:20:22;;;;;;;14.07;10.05;;;;;;;17.44;69.96;98913.88;1771642;79;21072;-59
2021/05/19 04:22:49;;;;;;;13.18;9.10;;;;;;;17.46;69.86;98917.14;1755952;78;21117;-63
2021/05/19 04:25:17;;;;;;;11.48;8.95;;;;;;;17.47;69.92;98913.98;1775061;78;21798;-62
2021/05/19 04:27:44;;;;;;;12.33;10.15;;;;;;;17.45;70.08;98912.86;1770867;78;21132;-62
2021/05/19 04:30:12;;;;;;;21.33;10.25;;;;;;;17.40;70.27;98908.66;1763298;78;21079;-63
2021/05/19 04:32:38;;;;;;;14.25;10.08;;;;;;;17.40;70.41;98913.14;1754406;79;21080;-62
2021/05/19 04:35:06;;;;;;;13.50;9.98;;;;;;;17.39;70.42;98914.99;1740628;80;21109;-60
2021/05/19 04:37:33;;;;;;;12.05;9.73;;;;;;;17.41;70.40;98911.61;1767310;78;21155;-62
2021/05/19 04:40:00;;;;;;;13.15;9.80;;;;;;;17.43;70.28;98908.75;1769291;79;21131;-60
2021/05/19 04:42:27;;;;;;;14.38;9.85;;;;;;;17.41;70.38;98917.45;1780694;78;21152;-70
2021/05/19 04:44:54;;;;;;;12.23;9.40;;;;;;;17.46;70.32;98918.47;1754884;79;21095;-68
2021/05/19 04:47:20;;;;;;;14.30;10.45;;;;;;;17.50;70.17;98918.06;1772491;79;21426;-68
2021/05/19 04:49:49;;;;;;;13.58;10.03;;;;;;;17.50;70.13;98919.39;1771862;79;21680;-69
2021/05/19 04:52:15;;;;;;;16.12;10.70;;;;;;;17.51;70.13;98918.38;1772141;79;22286;-68
2021/05/19 04:54:42;;;;;;;13.18;9.60;;;;;;;17.53;70.26;98917.66;1747667;80;21447;-68
2021/05/19 04:57:08;;;;;;;18.90;10.43;;;;;;;17.59;70.07;98906.22;1778883;78;21150;-63
2021/05/19 04:59:35;;;;;;;15.18;10.25;;;;;;;17.73;69.70;98906.50;1777459;79;21180;-69
2021/05/19 05:02:02;;;;;;;14.00;10.53;;;;;;;17.83;69.42;98903.44;1763647;79;21109;-68
2021/05/19 05:04:28;;;;;;;14.23;10.43;;;;;;;17.93;69.54;98903.86;1753675;80;21041;-70
2021/05/19 05:06:55;;;;;;;14.13;11.03;;;;;;;18.04;69.45;98905.09;1772381;79;21105;-67
2021/05/19 05:09:21;;;;;;;13.78;9.95;;;;;;;18.12;69.26;98910.20;1751932;79;21140;-67
2021/05/19 05:11:48;;;;;;;13.38;9.68;;;;;;;18.14;68.49;98907.30;1774712;79;21080;-69
2021/05/19 05:14:14;;;;;;;12.55;9.90;;;;;;;18.10;68.61;98910.09;1752394;79;21152;-69
2021/05/19 05:16:41;;;;;;;11.97;8.83;;;;;;;18.12;68.75;98912.86;1748109;80;21108;-69
2021/05/19 05:19:07;;;;;;;14.98;9.35;;;;;;;18.23;68.35;98909.25;1764050;80;21095;-69
2021/05/19 05:21:34;;;;;;;13.10;9.75;;;;;;;18.31;68.09;98916.49;1767634;79;21108;-66
2021/05/19 05:24:02;;;;;;;13.00;8.78;;;;;;;18.36;68.17;98912.69;1768732;79;21163;-70
2021/05/19 05:26:29;;;;;;;11.50;8.33;;;;;;;18.44;68.28;98920.97;1733453;80;21160;-69
2021/05/19 05:28:57;;;;;;;12.40;8.40;;;;;;;18.44;67.68;98922.80;1766462;79;21151;-68
2021/05/19 05:31:23;;;;;;;13.48;8.68;;;;;;;18.46;67.61;98916.73;1777295;78;21084;-66
2021/05/19 05:33:53;;;;;;;12.25;7.85;;;;;;;18.51;67.62;98920.95;1771041;79;21116;-67
2021/05/19 05:36:19;;;;;;;10.90;8.25;;;;;;;18.63;67.70;98918.45;1783668;79;21263;-68
2021/05/19 05:38:46;;;;;;;10.78;7.80;;;;;;;18.81;67.35;98919.06;1774827;79;21144;-69
2021/05/19 05:41:12;;;;;;;12.23;8.70;;;;;;;18.94;66.79;98919.84;1762181;79;21112;-67
2021/05/19 05:43:39;;;;;;;11.33;8.33;;;;;;;19.02;66.74;98922.79;1721646;81;21445;-72
2021/05/19 05:46:05;;;;;;;10.82;8.00;;;;;;;19.03;66.47;98921.77;1759238;79;21162;-68
2021/05/19 05:48:32;;;;;;;12.13;7.25;;;;;;;19.09;65.94;98924.89;1745400;80;21101;-69
2021/05/19 05:51:00;;;;;;;9.70;6.55;;;;;;;19.12;65.74;98924.47;1752388;79;21136;-68
2021/05/19 05:53:27;;;;;;;9.48;6.55;;;;;;;19.13;64.86;98919.95;1764172;78;21096;-65
2021/05/19 05:55:53;;;;;;;10.55;6.58;;;;;;;19.08;65.15;98920.61;1748998;79;21136;-67
2021/05/19 05:58:20;;;;;;;8.80;5.28;;;;;;;19.05;65.15;98922.36;1765736;79;21658;-73
2021/05/19 06:00:47;;;;;;;8.65;6.03;;;;;;;19.04;63.98;98916.72;1750562;79;21121;-69
2021/05/19 06:03:13;;;;;;;10.10;6.15;;;;;;;19.09;64.34;98916.09;1753974;78;21091;-67
2021/05/19 06:05:40;;;;;;;9.05;6.10;;;;;;;19.11;64.23;98920.19;1758224;79;21297;-67
2021/05/19 06:08:07;;;;;;;11.20;6.15;;;;;;;19.09;64.18;98915.56;1774884;78;21603;-67
2021/05/19 06:10:34;;;;;;;7.10;5.35;;;;;;;19.10;64.34;98919.88;1767367;78;21609;-69
2021/05/19 06:13:01;;;;;;;13.08;5.40;;;;;;;19.10;63.96;98923.06;1768279;78;21203;-70
2021/05/19 06:15:27;;;;;;;9.05;4.33;;;;;;;19.07;63.77;98921.63;1766042;78;21140;-72
2021/05/19 06:17:56;;;;;;;6.45;3.83;;;;;;;19.10;62.97;98934.53;1760276;79;22307;-70
2021/05/19 06:20:23;;;;;;;7.75;3.47;;;;;;;19.06;63.24;98934.67;1768848;78;21088;-63
2021/05/19 06:22:49;;;;;;;6.33;3.15;;;;;;;19.11;62.70;98936.18;1772389;78;21140;-61
2021/05/19 06:25:16;;;;;;;6.83;3.02;;;;;;;19.22;62.46;98941.86;1776406;78;21128;-63
2021/05/19 06:27:43;;;;;;;7.03;3.10;;;;;;;19.30;62.70;98950.95;1772868;78;21017;-63
2021/05/19 06:30:12;;;;;;;6.33;2.42;;;;;;;19.38;62.71;98953.85;1777592;78;21089;-65
2021/05/19 06:32:39;;;;;;;5.75;2.40;;;;;;;19.45;62.40;98959.46;1776742;78;21139;-65
2021/05/19 06:35:07;;;;;;;4.83;1.82;;;;;;;19.51;62.24;98964.44;1772927;78;21223;-65
2021/05/19 06:37:34;;;;;;;3.98;2.10;;;;;;;19.54;61.29;98964.53;1733482;79;21164;-66
2021/05/19 06:40:01;;;;;;;4.08;1.85;;;;;;;19.55;61.51;98963.48;1778582;79;21041;-65
2021/05/19 06:42:28;;;;;;;4.83;2.10;;;;;;;19.57;61.08;98964.08;1781091;78;21158;-67
2021/05/19 06:44:54;;;;;;;4.25;2.27;;;;;;;19.55;60.81;98970.16;1746742;79;21159;-67
2021/05/19 06:47:21;;;;;;;5.35;2.10;;;;;;;19.53;60.46;98981.56;1754252;79;21080;-66
2021/05/19 06:49:48;;;;;;;3.90;1.75;;;;;;;19.51;60.83;98980.97;1774020;79;21122;-63
2021/05/19 06:52:16;;;;;;;3.55;1.40;;;;;;;19.56;60.71;98980.61;1762991;78;21749;-61
2021/05/19 06:54:43;;;;;;;5.53;2.98;;;;;;;19.65;59.27;98975.83;1773632;79;21696;-68
2021/05/19 06:57:11;;;;;;;4.30;1.87;;;;;;;19.61;58.46;98986.64;1772187;79;21095;-68
2021/05/19 06:59:37;;;;;;;4.83;1.37;;;;;;;19.59;58.64;98982.05;1745659;79;21686;-64
2021/05/19 07:02:04;;;;;;;3.50;1.55;;;;;;;19.63;58.69;98989.91;1754578;79;21134;-68
2021/05/19 07:04:31;;;;;;;3.85;1.80;;;;;;;19.66;58.02;98990.81;1776989;78;21067;-66
2021/05/19 07:06:58;;;;;;;3.47;1.45;;;;;;;19.73;59.07;98994.24;1773725;78;21140;-66
2021/05/19 07:09:26;;;;;;;4.08;1.67;;;;;;;19.86;59.25;98998.18;1773439;79;21522;-67
2021/05/19 07:11:53;;;;;;;2.60;1.02;;;;;;;19.97;57.85;98992.67;1775567;78;21446;-68
2021/05/19 07:14:21;;;;;;;3.62;1.30;;;;;;;20.02;56.37;98990.66;1765958;79;21196;-68
2021/05/19 07:16:53;;;;;;;4.85;1.20;;;;;;;20.05;56.15;98990.22;1749155;79;21617;-67
2021/05/19 07:19:19;;;;;;;2.72;1.00;;;;;;;20.11;56.48;98994.70;1743450;80;21107;-66
2021/05/19 07:21:45;;;;;;;2.90;1.00;;;;;;;20.21;56.51;98997.69;1775353;79;21131;-66
2021/05/19 07:24:12;;;;;;;5.28;1.40;;;;;;;20.27;54.85;98997.84;1776337;78;21100;-66
2021/05/19 07:26:44;;;;;;;2.80;1.07;;;;;;;20.26;55.44;99002.87;1770561;78;21090;-72
2021/05/19 07:29:12;;;;;;;2.75;0.93;;;;;;;20.25;55.66;99005.27;1742768;80;21081;-71
2021/05/19 07:31:40;;;;;;;3.17;0.80;;;;;;;20.29;56.49;99001.11;1768007;79;21728;-65
2021/05/19 07:34:07;;;;;;;3.47;1.20;;;;;;;20.35;56.22;99005.58;1778009;78;21052;-69
2021/05/19 07:36:34;;;;;;;3.27;0.88;;;;;;;20.37;55.77;99000.83;1768757;78;21572;-68
2021/05/19 07:39:03;;;;;;;2.85;1.30;;;;;;;20.44;56.12;98998.89;1767250;78;21127;-68
2021/05/19 07:41:29;;;;;;;2.47;0.90;;;;;;;20.54;55.07;99000.56;1774744;78;21081;-62
2021/05/19 07:43:56;;;;;;;4.05;1.00;;;;;;;20.63;54.92;98997.11;1764626;78;21787;-66
2021/05/19 07:46:23;;;;;;;2.95;1.17;;;;;;;20.72;54.16;99004.30;1752198;79;21073;-68
2021/05/19 07:48:52;;;;;;;4.10;1.70;;;;;;;20.77;53.90;99000.44;1775230;79;21061;-69
2021/05/19 07:51:19;;;;;;;3.72;1.00;;;;;;;20.81;54.48;99005.63;1777380;79;21166;-68
2021/05/19 07:53:46;;;;;;;3.12;1.10;;;;;;;20.90;55.14;99003.48;1767561;79;21135;-67
2021/05/19 07:59:04;;;;;;;6.15;1.25;;;;;;;21.12;54.68;99009.18;1748123;79;21120;-69
2021/05/19 08:03:52;;;;;;;7.10;1.55;;;;;;;21.24;52.04;99005.22;1743821;80;21105;-66
2021/05/19 08:06:20;;;;;;;3.15;1.02;;;;;;;21.23;53.00;99008.92;1717957;81;21107;-67
2021/05/19 08:08:47;;;;;;;3.30;1.22;;;;;;;21.28;52.85;99007.72;1753643;79;21200;-68
2021/05/19 08:11:17;;;;;;;3.30;1.32;;;;;;;21.35;52.83;99009.81;1781532;79;21587;-67
2021/05/19 08:13:46;;;;;;;3.87;1.02;;;;;;;21.43;52.30;99019.36;1748261;79;21135;-65
2021/05/19 08:16:13;;;;;;;4.90;1.40;;;;;;;21.47;51.71;99015.23;1769234;79;21142;-67
2021/05/19 08:18:40;;;;;;;8.88;1.30;;;;;;;21.47;51.92;99015.23;1779884;79;21073;-63
2021/05/19 08:21:07;;;;;;;2.50;0.98;;;;;;;21.44;51.46;99021.00;1775772;79;21126;-63
2021/05/19 08:23:33;;;;;;;3.25;1.02;;;;;;;21.31;51.99;99024.13;1781648;79;21182;-63
2021/05/19 08:26:00;;;;;;;3.25;1.15;;;;;;;21.28;52.29;99029.97;1772578;79;21089;-63
2021/05/19 08:28:27;;;;;;;2.62;1.00;;;;;;;21.34;52.39;99031.72;1779638;79;21565;-63
2021/05/19 08:30:53;;;;;;;3.35;1.30;;;;;;;21.36;52.59;99028.81;1780981;79;21175;-56
2021/05/19 08:33:20;;;;;;;4.03;1.42;;;;;;;21.40;52.13;99022.48;1777346;79;21848;-61
2021/05/19 08:35:46;;;;;;;3.02;1.07;;;;;;;21.32;51.20;99028.45;1777706;79;21089;-61
2021/05/19 08:38:13;;;;;;;2.50;0.80;;;;;;;21.25;51.86;99029.57;1787644;79;21083;-58
2021/05/19 08:40:41;;;;;;;3.08;1.00;;;;;;;21.21;51.41;99027.06;1778660;79;21685;-64
2021/05/19 08:43:14;;;;;;;5.10;0.98;;;;;;;21.21;52.01;99024.39;1765493;79;21078;-68
2021/05/19 08:45:42;;;;;;;2.52;0.72;;;;;;;21.25;52.49;99026.89;1778027;78;21109;-65
2021/05/19 08:48:09;;;;;;;3.83;1.00;;;;;;;21.32;52.80;99033.00;1750971;78;21503;-61
2021/05/19 08:50:37;;;;;;;2.98;0.82;;;;;;;21.35;52.60;99025.86;1775445;78;21170;-67
2021/05/19 08:53:08;;;;;;;2.83;0.75;;;;;;;21.41;52.61;99028.95;1779396;78;21106;-67
2021/05/19 08:55:37;;;;;;;3.00;0.93;;;;;;;21.51;52.80;99029.78;1767197;78;21116;-67
2021/05/19 08:58:04;;;;;;;2.35;0.70;;;;;;;21.62;52.17;99034.86;1756764;79;21095;-66
2021/05/19 09:00:33;;;;;;;1.82;0.70;;;;;;;21.70;51.56;99027.35;1767062;78;21226;-62
2021/05/19 09:03:18;;;;;;;2.75;0.90;;;;;;;21.78;51.23;99033.41;1770450;78;22224;-63
2021/05/19 09:05:48;;;;;;;2.47;0.93;;;;;;;21.83;50.36;99032.20;1775808;79;21582;-66
2021/05/19 09:08:18;;;;;;;3.15;0.95;;;;;;;21.84;50.47;99041.88;1763720;78;21086;-63
2021/05/19 09:11:00;;;;;;;2.02;0.85;;;;;;;21.87;49.63;99042.23;1761981;78;21165;-65
2021/05/19 09:13:44;;;;;;;2.72;0.88;;;;;;;21.88;49.35;99033.66;1777317;79;21048;-65
2021/05/19 09:16:10;;;;;;;3.80;1.47;;;;;;;21.84;49.95;99032.50;1752783;79;21020;-64
2021/05/19 09:18:52;;;;;;;3.83;0.70;;;;;;;21.85;49.98;99036.80;1773442;79;21643;-66
2021/05/19 09:21:41;;;;;;;3.50;0.82;;;;;;;21.84;48.74;99031.97;1758404;79;21532;-67
2021/05/19 09:24:21;;;;;;;3.22;0.90;;;;;;;21.86;48.89;99021.84;1762563;78;21133;-67
2021/05/19 09:26:58;;;;;;;3.17;0.90;;;;;;;21.93;48.89;99023.61;1767098;78;21120;-68
2021/05/19 09:29:30;;;;;;;2.87;1.10;;;;;;;21.99;49.95;99024.84;1772429;79;21950;-66
2021/05/19 09:32:07;;;;;;;5.62;1.05;;;;;;;22.10;50.39;99013.03;1783521;79;21580;-61
2021/05/19 09:34:37;;;;;;;2.50;0.80;;;;;;;22.17;50.89;99017.21;1770646;78;21047;-66
2021/05/19 09:37:26;;;;;;;3.15;0.90;;;;;;;22.24;49.27;99016.59;1767768;79;21025;-67
2021/05/19 09:39:58;;;;;;;1.47;0.50;;;;;;;22.26;49.76;99012.34;1779884;79;21104;-64
2021/05/19 09:42:40;;;;;;;1.42;0.50;;;;;;;22.28;49.65;99011.62;1750993;80;21021;-65
2021/05/19 09:45:32;;;;;;;4.17;0.70;;;;;;;22.28;48.19;99006.77;1758863;78;21582;-66
2021/05/19 09:48:00;;;;;;;2.25;0.60;;;;;;;22.25;48.92;99007.49;1757481;79;21168;-65
2021/05/19 09:50:41;;;;;;;2.87;0.80;;;;;;;22.26;49.37;99008.33;1775391;78;21092;-65
2021/05/19 09:53:15;;;;;;;1.37;0.50;;;;;;;22.34;50.14;99010.70;1764709;78;21140;-66
2021/05/19 09:56:02;;;;;;;1.87;0.68;;;;;;;22.44;49.77;99016.28;1779465;78;21073;-65
2021/05/19 09:58:31;;;;;;;2.33;0.70;;;;;;;22.58;48.97;99016.04;1765018;78;21170;-67
2021/05/19 10:00:58;;;;;;;2.30;0.70;;;;;;;22.62;48.72;99015.84;1718452;81;21172;-65
2021/05/19 10:03:25;;;;;;;1.50;0.60;;;;;;;22.66;47.88;99008.95;1707023;82;21086;-65
2021/05/19 10:06:02;;;;;;;1.85;0.80;;;;;;;22.70;48.65;99012.80;1711160;82;21549;-65
2021/05/19 10:08:20;;;;;;;2.00;0.70;;;;;;;22.77;48.07;99016.17;1723264;80;21180;-67
2021/05/19 10:10:46;;;;;;;4.03;0.70;;;;;;;22.87;48.27;99011.55;1707359;80;21040;-66
2021/05/19 10:13:13;;;;;;;1.07;0.40;;;;;;;22.95;47.24;99008.50;1718243;81;21180;-66
2021/05/19 10:15:40;;;;;;;3.15;0.62;;;;;;;23.00;46.92;99010.48;1764524;79;22383;-67
2021/05/19 10:18:10;;;;;;;1.95;0.50;;;;;;;23.02;47.42;99018.29;1773752;79;21230;-66
2021/05/19 10:20:40;;;;;;;3.42;0.65;;;;;;;23.05;46.10;99019.96;1775425;78;21068;-66
2021/05/19 10:23:07;;;;;;;1.55;0.65;;;;;;;23.06;46.02;99014.06;1765867;79;21602;-65
2021/05/19 10:25:40;;;;;;;3.10;0.80;;;;;;;23.06;45.62;99025.63;1760331;79;21119;-66
2021/05/19 10:28:09;;;;;;;2.60;0.68;;;;;;;23.06;46.17;99022.11;1768139;79;21127;-65
2021/05/19 10:30:50;;;;;;;3.55;0.55;;;;;;;23.06;46.15;99026.97;1749410;79;22343;-65
2021/05/19 10:33:45;;;;;;;2.20;0.95;;;;;;;23.08;46.24;99030.25;1771937;78;21139;-66
2021/05/19 10:36:29;;;;;;;4.12;0.90;;;;;;;23.10;46.53;99029.48;1755548;79;21155;-65
2021/05/19 10:39:13;;;;;;;3.87;0.65;;;;;;;23.08;46.60;99030.76;1776894;78;21078;-66
2021/05/19 10:41:48;;;;;;;6.65;0.80;;;;;;;23.09;47.05;99028.38;1744329;79;21183;-66
2021/05/19 10:44:17;;;;;;;2.50;0.80;;;;;;;23.09;47.36;99029.18;1772091;79;21178;-67
2021/05/19 10:46:58;;;;;;;2.40;0.78;;;;;;;23.08;46.33;99029.42;1779584;78;21081;-66
2021/05/19 10:49:22;;;;;;;1.82;0.60;;;;;;;23.07;46.23;99031.83;1775140;79;21049;-66
2021/05/19 10:52:19;;;;;;;1.27;0.50;;;;;;;23.08;46.32;99029.42;1764464;79;21585;-68
2021/05/19 10:58:02;;;;;;;2.98;0.75;;;;;;;23.09;45.71;99035.89;1776208;79;21041;-65
2021/05/19 11:00:32;;;;;;;2.60;0.68;;;;;;;23.10;46.47;99029.48;1763373;78;21141;-67
2021/05/19 11:03:05;;;;;;;2.15;0.60;;;;;;;23.11;46.39;99025.73;1746635;79;21122;-66
2021/05/19 11:05:34;;;;;;;1.85;0.55;;;;;;;23.11;46.61;99027.07;1762331;79;22018;-67
2021/05/19 11:08:11;;;;;;;2.08;0.78;;;;;;;23.10;45.99;99026.80;1767532;78;21620;-65
2021/05/19 11:10:39;;;;;;;;;;;;;;;23.12;46.10;99028.71;1756763;79;21137;-65
2021/05/19 11:13:07;;;;;;;2.80;0.82;;;;;;;23.15;46.05;99031.46;1771071;79;20625;-62
2021/05/19 11:20:59;;;;;;;2.08;0.68;;;;;;;23.12;46.66;99030.05;1758655;79;21040;-65
2021/05/19 11:23:26;;;;;;;2.40;0.82;;;;;;;23.16;47.01;99032.53;1767011;78;21053;-63
2021/05/19 11:26:13;;;;;;;2.55;0.68;;;;;;;23.19;47.33;99033.94;1781130;78;21121;-67
2021/05/19 11:28:40;;;;;;;3.22;0.93;;;;;;;23.22;47.07;99040.69;1771825;78;21133;-68
2021/05/19 11:31:11;;;;;;;2.02;0.60;;;;;;;23.27;46.61;99038.13;1775141;79;21602;-67
2021/05/19 11:33:57;;;;;;;1.92;0.40;;;;;;;23.27;46.66;99036.78;1759741;78;21091;-65
2021/05/19 11:36:42;;;;;;;1.85;0.60;;;;;;;23.27;46.26;99037.59;1764107;78;21051;-63
2021/05/19 11:39:35;;;;;;;2.42;0.70;;;;;;;23.29;46.32;99038.70;1767464;78;21073;-71
2021/05/19 11:42:25;;;;;;;1.47;0.40;;;;;;;23.29;46.50;99038.16;1776574;78;21151;-67
2021/05/19 11:44:59;;;;;;;3.17;0.80;;;;;;;23.30;46.89;99038.97;1777185;78;21529;-66
2021/05/19 11:47:38;;;;;;;2.55;0.90;;;;;;;23.28;46.70;99037.05;1776089;79;21178;-69
2021/05/19 11:50:10;;;;;;;1.92;0.65;;;;;;;23.21;46.98;99029.68;1759178;79;21658;-73
2021/05/19 11:52:59;;;;;;;2.30;0.57;;;;;;;23.13;46.55;99024.98;1778304;78;21594;-75
2021/05/19 11:55:50;;;;;;;1.87;0.70;;;;;;;22.99;46.78;99026.27;1769072;79;21093;-74
2021/05/19 11:58:25;;;;;;;2.85;0.88;;;;;;;22.81;47.35;99029.41;1737598;80;21083;-76
2021/05/19 12:00:57;;;;;;;1.70;0.50;;;;;;;22.69;48.04;99029.12;1775261;79;21127;-70
2021/05/19 12:03:25;;;;;;;1.72;0.70;;;;;;;22.56;48.38;99032.86;1753063;79;21129;-68
2021/05/19 12:05:56;;;;;;;4.00;0.68;;;;;;;22.42;48.57;99037.65;1755895;79;21125;-65
2021/05/19 12:08:37;;;;;;;4.20;0.90;;;;;;;22.26;48.92;99039.95;1770341;78;21093;-64
2021/05/19 12:11:24;;;;;;;2.85;0.95;;;;;;;22.15;49.48;99041.28;1753593;79;21412;-65
2021/05/19 12:14:03;;;;;;;1.42;0.70;;;;;;;22.04;50.53;99051.75;1744749;78;21161;-61
2021/05/19 12:16:41;;;;;;;2.60;0.90;;;;;;;21.92;51.79;99053.56;1755769;78;21111;-63
2021/05/19 12:19:15;;;;;;;3.40;1.02;;;;;;;21.79;51.60;99065.84;1766671;78;21132;-68
2021/05/19 12:21:46;;;;;;;4.72;1.15;;;;;;;21.59;53.73;99073.63;1685347;82;21422;-65